Cincinnati Municipal Airport Lunken Field
KLUK : rendu visible

Aérodrome :











RETROUVEZ-NOUS SUR...

 
LOGIN :

S'inscrire | Disclaimer

   EN    FR    IT 

 









Légende :    VFR   VFR Marginal   IFR   IFR Intensif   IFR Très Intensif
Visi : 
Plafond : 
>= 8 km
>= 3000ft
5 à 8 km
1000 à 3000 ft
1500m à 5 km
500 à 1000 ft
800 à 1500m
200 à 500 ft
< 800m
< 200 ft
Symboles :   Orages  Brouillard  Fortes neiges  Fortes précipitations  Vent > 20 kt






- Altitude de l'aérodrome : 483 ft
- Code IATA : LUK


KLUK - Cincinnati Municipal Lunken Field

DERNIER METAR :
  • 050853Z AUTO 00000KT 3SM R21L/1400VP6000FT BR CLR 21/19 A2996 RMK AO2 SLP140 T02060194 55003

METARs EXPIRÉS :
  • 050809Z AUTO 00000KT 3SM BR CLR 21/19 A2996 RMK AO2 T02060194
  • 050753Z AUTO 00000KT 2 1/2SM BR CLR 21/19 A2996 RMK AO2 SLP140 T02060194
  • 050732Z AUTO 00000KT 2 1/2SM BR CLR 21/19 A2995 RMK AO2 T02060194
  • 050653Z AUTO 00000KT 3SM BR CLR 21/19 A2997 RMK AO2 SLP142 T02060194

TAF KLUK
Valide du 05 à 06h jusqu'au 06 à 06h UTC


050540Z 0506/0606 00000KT 4SM BR SCT250
TEMPO 0508/0511 1SM BR
FM051300 09005KT P6SM SCT060
FM060100 VRB03KT P6SM SCT250
FIR KZID / Amérique du Nord



MET'MAP, la Météo Aéronautique d'un coup d'oeil ! - Copyright ORBIFLY Décembre 2007 - Disclaimer

ORBIFLY MET'MAP TEAM :

Programmation & Développement : Alexandra Zaïnal
Sur une idée originale de : Baudouin d'Aumeries
Assistance à la programmation : Marc-Olivier Méhu
Soutien technique & logistique : Manuel Goepfert

Contact : metmap@orbifly.com




SOURCES & CREDITS :

   NOAA       Earth
Advisory